Anniston Metropolitan Airport


Codes: KANB/ANB
Name: Anniston Metropolitan Airport
City: Anniston
Country: United States
Elevation: 612 ft.
Wikipedia:

Photos at Anniston Metropolitan Airport


   Photos courtesy of SpottingLog. You can add your own sightings and photos by signing up for a free trial today.



No photos found.

Weather at Anniston Metropolitan Airport


Time (UTC)DescriptionTempratureWindCloud coverageVisibilityPressureHumidity
21-Jun-2024 15:00Clear Sky24°C4 mph, E0%10000m1024hPa69%
21-Jun-2024 18:00Clear Sky29°C7 mph, NE1%10000m1022hPa49%
21-Jun-2024 21:00Clear Sky34°C4 mph, E0%10000m1018hPa29%
22-Jun-2024 00:00Clear Sky30°C2 mph, NE6%10000m1018hPa51%
22-Jun-2024 03:00Broken Clouds26°C2 mph, NE83%10000m1019hPa58%
22-Jun-2024 06:00Broken Clouds23°C2 mph, E65%10000m1019hPa69%
22-Jun-2024 09:00Broken Clouds21°C2 mph, SE53%10000m1019hPa66%
22-Jun-2024 12:00Broken Clouds22°C2 mph, SE77%10000m1020hPa68%
22-Jun-2024 15:00Scattered Clouds31°C2 mph, SE47%10000m1019hPa41%
22-Jun-2024 18:00Scattered Clouds36°C2 mph, NW27%10000m1017hPa29%
22-Jun-2024 21:00Few Clouds36°C2 mph, N18%10000m1015hPa27%
23-Jun-2024 00:00Scattered Clouds30°C2 mph, N38%10000m1014hPa48%
23-Jun-2024 03:00Scattered Clouds26°C2 mph, E38%10000m1015hPa55%
23-Jun-2024 06:00Scattered Clouds25°C2 mph, SE50%10000m1015hPa60%
23-Jun-2024 09:00Broken Clouds24°C2 mph, S79%10000m1015hPa70%
23-Jun-2024 12:00Broken Clouds24°C2 mph, S55%10000m1015hPa69%
23-Jun-2024 15:00Overcast Clouds30°C4 mph, W85%10000m1015hPa50%
23-Jun-2024 18:00Broken Clouds36°C4 mph, NW72%10000m1013hPa29%
23-Jun-2024 21:00Broken Clouds35°C7 mph, W67%10000m1011hPa30%
24-Jun-2024 00:00Broken Clouds31°C2 mph, NW51%10000m1011hPa49%
24-Jun-2024 03:00Broken Clouds26°C2 mph, E52%10000m1012hPa59%
24-Jun-2024 06:00Scattered Clouds24°C2 mph, S27%10000m1012hPa62%
24-Jun-2024 09:00Clear Sky23°C2 mph, SW4%10000m1012hPa67%
24-Jun-2024 12:00Light Rain24°C2 mph, SW22%10000m1014hPa79%
24-Jun-2024 15:00Light Rain31°C4 mph, SW7%10000m1014hPa56%
24-Jun-2024 18:00Clear Sky36°C7 mph, NW7%10000m1013hPa37%
24-Jun-2024 21:00Scattered Clouds37°C9 mph, N46%10000m1011hPa30%
25-Jun-2024 00:00Broken Clouds31°C2 mph, N65%10000m1011hPa54%
25-Jun-2024 03:00Broken Clouds26°C2 mph, SW59%10000m1013hPa64%
25-Jun-2024 06:00Broken Clouds25°C0 mph, SW71%10000m1013hPa70%
25-Jun-2024 09:00Broken Clouds24°C2 mph, SE67%10000m1013hPa72%
25-Jun-2024 12:00Broken Clouds26°C2 mph, SW56%10000m1014hPa72%
25-Jun-2024 15:00Broken Clouds33°C4 mph, W67%10000m1014hPa50%
25-Jun-2024 18:00Broken Clouds37°C7 mph, W60%10000m1013hPa34%
25-Jun-2024 21:00Light Rain33°C11 mph, NW79%10000m1011hPa49%
26-Jun-2024 00:00Light Rain25°C0 mph, SE85%10000m1012hPa80%
26-Jun-2024 03:00Light Rain23°C2 mph, SE80%10000m1014hPa91%
26-Jun-2024 06:00Light Rain22°C4 mph, S90%10000m1012hPa94%
26-Jun-2024 09:00Overcast Clouds22°C4 mph, SW100%10000m1012hPa95%
26-Jun-2024 12:00Light Rain23°C2 mph, SW100%10000m1013hPa95%